sensor_id;sensor_type;location;lat;lon;timestamp;pressure;altitude;pressure_sealevel;temperature;humidity
60437;BME280;46289;51.992;4.498;2023-05-23T00:00:57;102250.69;;;12.11;96.79
60437;BME280;46289;51.992;4.498;2023-05-23T00:03:02;102247.34;;;12.04;96.51
60437;BME280;46289;51.992;4.498;2023-05-23T00:05:08;102251.59;;;12.10;96.85
60437;BME280;46289;51.992;4.498;2023-05-23T00:07:13;102257.56;;;12.16;96.53
60437;BME280;46289;51.992;4.498;2023-05-23T00:09:22;102254.94;;;12.16;96.97
60437;BME280;46289;51.992;4.498;2023-05-23T00:11:27;102251.63;;;12.08;97.13
60437;BME280;46289;51.992;4.498;2023-05-23T00:13:35;102258.50;;;12.14;97.01
60437;BME280;46289;51.992;4.498;2023-05-23T00:15:41;102253.13;;;12.18;96.79
60437;BME280;46289;51.992;4.498;2023-05-23T00:17:46;102256.81;;;12.11;96.57
60437;BME280;46289;51.992;4.498;2023-05-23T00:19:52;102253.38;;;12.09;96.01
60437;BME280;46289;51.992;4.498;2023-05-23T00:22:00;102257.53;;;12.18;95.31
60437;BME280;46289;51.992;4.498;2023-05-23T00:24:05;102262.63;;;12.25;95.07
60437;BME280;46289;51.992;4.498;2023-05-23T00:26:11;102250.28;;;12.27;95.35
60437;BME280;46289;51.992;4.498;2023-05-23T00:28:18;102250.88;;;12.39;95.33
60437;BME280;46289;51.992;4.498;2023-05-23T00:30:29;102251.72;;;12.41;95.11
60437;BME280;46289;51.992;4.498;2023-05-23T00:32:35;102254.19;;;12.47;95.21
60437;BME280;46289;51.992;4.498;2023-05-23T00:34:41;102259.53;;;12.44;95.38
60437;BME280;46289;51.992;4.498;2023-05-23T00:36:46;102258.41;;;12.52;95.24
60437;BME280;46289;51.992;4.498;2023-05-23T00:38:52;102257.81;;;12.43;96.17
60437;BME280;46289;51.992;4.498;2023-05-23T00:40:58;102261.03;;;12.54;95.73
60437;BME280;46289;51.992;4.498;2023-05-23T00:43:03;102267.19;;;12.53;95.91
60437;BME280;46289;51.992;4.498;2023-05-23T00:45:10;102268.22;;;12.47;95.92
60437;BME280;46289;51.992;4.498;2023-05-23T00:47:21;102274.44;;;12.45;96.59
60437;BME280;46289;51.992;4.498;2023-05-23T00:49:27;102278.91;;;12.43;96.83
60437;BME280;46289;51.992;4.498;2023-05-23T00:51:32;102277.31;;;12.36;96.91
60437;BME280;46289;51.992;4.498;2023-05-23T00:53:37;102273.69;;;12.40;96.66
60437;BME280;46289;51.992;4.498;2023-05-23T00:55:43;102280.84;;;12.35;96.36
60437;BME280;46289;51.992;4.498;2023-05-23T00:57:50;102265.91;;;12.35;96.27
60437;BME280;46289;51.992;4.498;2023-05-23T00:59:58;102262.28;;;12.39;96.04
60437;BME280;46289;51.992;4.498;2023-05-23T01:02:04;102270.00;;;12.47;95.88
60437;BME280;46289;51.992;4.498;2023-05-23T01:04:14;102264.56;;;12.53;95.60
60437;BME280;46289;51.992;4.498;2023-05-23T01:06:21;102263.59;;;12.56;94.76
60437;BME280;46289;51.992;4.498;2023-05-23T01:08:28;102265.44;;;12.54;94.39
60437;BME280;46289;51.992;4.498;2023-05-23T01:10:34;102265.31;;;12.58;94.43
60437;BME280;46289;51.992;4.498;2023-05-23T01:13:08;102263.47;;;12.62;94.27
60437;BME280;46289;51.992;4.498;2023-05-23T01:15:21;102261.72;;;12.61;93.96
60437;BME280;46289;51.992;4.498;2023-05-23T01:17:32;102260.09;;;12.57;93.84
60437;BME280;46289;51.992;4.498;2023-05-23T01:19:58;102259.13;;;12.59;93.20
60437;BME280;46289;51.992;4.498;2023-05-23T01:22:21;102264.34;;;12.61;93.04
60437;BME280;46289;51.992;4.498;2023-05-23T01:24:35;102270.66;;;12.55;92.52
60437;BME280;46289;51.992;4.498;2023-05-23T01:27:00;102272.31;;;12.59;92.53
60437;BME280;46289;51.992;4.498;2023-05-23T01:29:13;102266.22;;;12.57;92.49
60437;BME280;46289;51.992;4.498;2023-05-23T01:31:26;102266.22;;;12.57;91.84
60437;BME280;46289;51.992;4.498;2023-05-23T01:33:35;102271.38;;;12.62;91.59
60437;BME280;46289;51.992;4.498;2023-05-23T01:35:44;102274.13;;;12.57;91.08
60437;BME280;46289;51.992;4.498;2023-05-23T01:37:51;102273.16;;;12.61;90.81
60437;BME280;46289;51.992;4.498;2023-05-23T01:40:00;102271.31;;;12.63;90.89
60437;BME280;46289;51.992;4.498;2023-05-23T01:42:11;102265.06;;;12.67;90.39
60437;BME280;46289;51.992;4.498;2023-05-23T01:44:21;102279.28;;;12.62;90.40
60437;BME280;46289;51.992;4.498;2023-05-23T01:46:33;102275.78;;;12.61;90.39
60437;BME280;46289;51.992;4.498;2023-05-23T01:48:41;102275.50;;;12.72;90.19
60437;BME280;46289;51.992;4.498;2023-05-23T01:50:48;102272.91;;;12.70;89.89
60437;BME280;46289;51.992;4.498;2023-05-23T01:52:54;102273.75;;;12.71;89.57
60437;BME280;46289;51.992;4.498;2023-05-23T01:55:00;102277.16;;;12.76;89.34
60437;BME280;46289;51.992;4.498;2023-05-23T01:57:07;102273.63;;;12.77;89.24
60437;BME280;46289;51.992;4.498;2023-05-23T01:59:14;102284.94;;;12.81;89.37
60437;BME280;46289;51.992;4.498;2023-05-23T02:01:22;102283.44;;;12.70;89.06
60437;BME280;46289;51.992;4.498;2023-05-23T02:03:31;102277.16;;;12.76;88.87
60437;BME280;46289;51.992;4.498;2023-05-23T02:05:37;102280.63;;;12.77;89.15
60437;BME280;46289;51.992;4.498;2023-05-23T02:07:42;102280.69;;;12.75;88.52
60437;BME280;46289;51.992;4.498;2023-05-23T02:12:12;102282.47;;;12.74;88.61
60437;BME280;46289;51.992;4.498;2023-05-23T02:14:19;102281.78;;;12.66;88.62
60437;BME280;46289;51.992;4.498;2023-05-23T02:16:30;102285.03;;;12.78;88.47
60437;BME280;46289;51.992;4.498;2023-05-23T02:18:40;102291.16;;;12.78;88.14
60437;BME280;46289;51.992;4.498;2023-05-23T02:20:51;102292.41;;;12.63;88.82
60437;BME280;46289;51.992;4.498;2023-05-23T02:23:00;102282.03;;;12.57;88.58
60437;BME280;46289;51.992;4.498;2023-05-23T02:25:06;102294.09;;;12.67;88.27
60437;BME280;46289;51.992;4.498;2023-05-23T02:27:12;102294.25;;;12.61;88.10
60437;BME280;46289;51.992;4.498;2023-05-23T02:29:22;102301.53;;;12.51;87.70
60437;BME280;46289;51.992;4.498;2023-05-23T02:31:30;102308.53;;;12.52;88.33
60437;BME280;46289;51.992;4.498;2023-05-23T02:33:36;102295.34;;;12.52;88.30
60437;BME280;46289;51.992;4.498;2023-05-23T02:35:42;102307.50;;;12.58;87.96
60437;BME280;46289;51.992;4.498;2023-05-23T02:37:49;102306.81;;;12.50;88.00
60437;BME280;46289;51.992;4.498;2023-05-23T02:39:56;102304.06;;;12.56;87.86
60437;BME280;46289;51.992;4.498;2023-05-23T02:42:02;102306.91;;;12.47;87.57
60437;BME280;46289;51.992;4.498;2023-05-23T02:44:10;102308.75;;;12.43;87.24
60437;BME280;46289;51.992;4.498;2023-05-23T02:46:16;102323.72;;;12.43;87.58
60437;BME280;46289;51.992;4.498;2023-05-23T02:48:26;102319.16;;;12.49;87.35
60437;BME280;46289;51.992;4.498;2023-05-23T02:50:31;102320.94;;;12.49;87.17
60437;BME280;46289;51.992;4.498;2023-05-23T02:52:39;102316.78;;;12.39;87.46
60437;BME280;46289;51.992;4.498;2023-05-23T02:54:45;102319.34;;;12.42;87.12
60437;BME280;46289;51.992;4.498;2023-05-23T02:56:52;102321.00;;;12.46;87.54
60437;BME280;46289;51.992;4.498;2023-05-23T02:58:58;102324.44;;;12.48;87.34
60437;BME280;46289;51.992;4.498;2023-05-23T03:01:06;102335.00;;;12.48;86.84
60437;BME280;46289;51.992;4.498;2023-05-23T03:03:19;102327.31;;;12.39;87.31
60437;BME280;46289;51.992;4.498;2023-05-23T03:05:26;102328.09;;;12.42;86.92
60437;BME280;46289;51.992;4.498;2023-05-23T03:07:32;102327.09;;;12.48;86.92
60437;BME280;46289;51.992;4.498;2023-05-23T03:09:38;102325.53;;;12.39;86.56
60437;BME280;46289;51.992;4.498;2023-05-23T03:11:43;102333.44;;;12.41;86.76
60437;BME280;46289;51.992;4.498;2023-05-23T03:13:52;102336.16;;;12.38;86.70
60437;BME280;46289;51.992;4.498;2023-05-23T03:16:00;102333.50;;;12.38;86.69
60437;BME280;46289;51.992;4.498;2023-05-23T03:18:05;102327.53;;;12.29;87.17
60437;BME280;46289;51.992;4.498;2023-05-23T03:20:14;102331.84;;;12.34;87.09
60437;BME280;46289;51.992;4.498;2023-05-23T03:22:26;102330.13;;;12.33;87.16
60437;BME280;46289;51.992;4.498;2023-05-23T03:24:32;102332.19;;;12.18;87.25
60437;BME280;46289;51.992;4.498;2023-05-23T03:26:37;102334.06;;;12.13;86.60
60437;BME280;46289;51.992;4.498;2023-05-23T03:28:42;102330.41;;;12.20;86.36
60437;BME280;46289;51.992;4.498;2023-05-23T03:30:50;102327.97;;;12.11;85.75
60437;BME280;46289;51.992;4.498;2023-05-23T03:32:58;102334.00;;;12.16;85.75
60437;BME280;46289;51.992;4.498;2023-05-23T03:35:08;102339.25;;;12.16;85.61
60437;BME280;46289;51.992;4.498;2023-05-23T03:37:15;102328.94;;;12.08;85.53
60437;BME280;46289;51.992;4.498;2023-05-23T03:39:24;102339.75;;;11.95;85.18
60437;BME280;46289;51.992;4.498;2023-05-23T03:41:34;102341.44;;;11.99;85.26
60437;BME280;46289;51.992;4.498;2023-05-23T03:43:39;102346.63;;;12.02;85.41
60437;BME280;46289;51.992;4.498;2023-05-23T03:45:44;102344.31;;;11.86;84.97
60437;BME280;46289;51.992;4.498;2023-05-23T03:47:50;102352.09;;;11.93;85.20
60437;BME280;46289;51.992;4.498;2023-05-23T03:49:56;102358.31;;;11.90;84.74
60437;BME280;46289;51.992;4.498;2023-05-23T03:52:02;102355.50;;;11.98;84.81
60437;BME280;46289;51.992;4.498;2023-05-23T03:54:07;102358.88;;;12.03;84.52
60437;BME280;46289;51.992;4.498;2023-05-23T03:56:15;102357.97;;;12.05;83.52
60437;BME280;46289;51.992;4.498;2023-05-23T03:58:22;102352.91;;;11.96;83.72
60437;BME280;46289;51.992;4.498;2023-05-23T04:00:30;102353.69;;;12.00;84.03
60437;BME280;46289;51.992;4.498;2023-05-23T04:02:36;102361.69;;;11.95;84.01
60437;BME280;46289;51.992;4.498;2023-05-23T04:04:48;102376.72;;;11.92;83.98
60437;BME280;46289;51.992;4.498;2023-05-23T04:06:58;102375.75;;;11.96;83.11
60437;BME280;46289;51.992;4.498;2023-05-23T04:09:11;102379.28;;;11.95;82.98
60437;BME280;46289;51.992;4.498;2023-05-23T04:11:21;102388.00;;;11.97;83.23
60437;BME280;46289;51.992;4.498;2023-05-23T04:13:29;102379.34;;;11.92;82.11
60437;BME280;46289;51.992;4.498;2023-05-23T04:15:37;102381.81;;;11.99;82.03
60437;BME280;46289;51.992;4.498;2023-05-23T04:17:44;102376.72;;;11.92;82.04
60437;BME280;46289;51.992;4.498;2023-05-23T04:19:53;102379.56;;;11.79;82.17
60437;BME280;46289;51.992;4.498;2023-05-23T04:21:58;102383.03;;;11.81;81.96
60437;BME280;46289;51.992;4.498;2023-05-23T04:24:06;102388.22;;;11.88;80.88
60437;BME280;46289;51.992;4.498;2023-05-23T04:26:12;102383.84;;;11.86;81.04
60437;BME280;46289;51.992;4.498;2023-05-23T04:28:27;102394.56;;;11.77;81.58
60437;BME280;46289;51.992;4.498;2023-05-23T04:30:35;102385.66;;;11.81;82.05
60437;BME280;46289;51.992;4.498;2023-05-23T04:32:41;102385.03;;;11.69;82.42
60437;BME280;46289;51.992;4.498;2023-05-23T04:34:47;102390.38;;;11.65;82.26
60437;BME280;46289;51.992;4.498;2023-05-23T04:36:53;102393.84;;;11.69;81.99
60437;BME280;46289;51.992;4.498;2023-05-23T04:38:58;102393.78;;;11.71;81.93
60437;BME280;46289;51.992;4.498;2023-05-23T04:41:04;102405.88;;;11.81;81.42
60437;BME280;46289;51.992;4.498;2023-05-23T04:43:11;102393.63;;;11.78;81.26
60437;BME280;46289;51.992;4.498;2023-05-23T04:45:19;102389.16;;;11.83;81.18
60437;BME280;46289;51.992;4.498;2023-05-23T04:47:25;102406.66;;;11.84;81.02
60437;BME280;46289;51.992;4.498;2023-05-23T04:49:30;102410.13;;;11.90;81.22
60437;BME280;46289;51.992;4.498;2023-05-23T04:51:37;102413.78;;;11.81;81.17
60437;BME280;46289;51.992;4.498;2023-05-23T04:53:42;102406.66;;;11.88;81.07
60437;BME280;46289;51.992;4.498;2023-05-23T04:55:48;102411.13;;;11.82;81.13
60437;BME280;46289;51.992;4.498;2023-05-23T04:57:54;102414.63;;;11.81;80.38
60437;BME280;46289;51.992;4.498;2023-05-23T04:59:59;102418.41;;;11.70;79.77
60437;BME280;46289;51.992;4.498;2023-05-23T05:02:11;102420.97;;;11.74;80.11
60437;BME280;46289;51.992;4.498;2023-05-23T05:04:16;102428.09;;;11.66;79.64
60437;BME280;46289;51.992;4.498;2023-05-23T05:06:22;102435.84;;;11.75;79.83
60437;BME280;46289;51.992;4.498;2023-05-23T05:08:29;102432.50;;;11.67;80.09
60437;BME280;46289;51.992;4.498;2023-05-23T05:10:34;102435.91;;;11.72;80.25
60437;BME280;46289;51.992;4.498;2023-05-23T05:12:40;102440.34;;;11.70;80.21
60437;BME280;46289;51.992;4.498;2023-05-23T05:14:47;102434.28;;;11.65;79.65
60437;BME280;46289;51.992;4.498;2023-05-23T05:16:54;102431.50;;;11.74;78.88
60437;BME280;46289;51.992;4.498;2023-05-23T05:19:02;102441.13;;;11.75;78.50
60437;BME280;46289;51.992;4.498;2023-05-23T05:21:07;102438.56;;;11.71;79.32
60437;BME280;46289;51.992;4.498;2023-05-23T05:23:12;102446.66;;;11.60;79.57
60437;BME280;46289;51.992;4.498;2023-05-23T05:25:19;102444.03;;;11.60;79.35
60437;BME280;46289;51.992;4.498;2023-05-23T05:27:28;102441.47;;;11.57;79.50
60437;BME280;46289;51.992;4.498;2023-05-23T05:29:34;102443.97;;;11.63;79.29
60437;BME280;46289;51.992;4.498;2023-05-23T05:31:40;102451.03;;;11.61;78.84
60437;BME280;46289;51.992;4.498;2023-05-23T05:33:46;102446.59;;;11.64;78.65
60437;BME280;46289;51.992;4.498;2023-05-23T05:35:55;102448.03;;;11.81;78.15
60437;BME280;46289;51.992;4.498;2023-05-23T05:38:00;102449.72;;;11.83;78.24
60437;BME280;46289;51.992;4.498;2023-05-23T05:40:07;102459.31;;;11.89;78.51
60437;BME280;46289;51.992;4.498;2023-05-23T05:42:12;102454.88;;;11.91;78.33
60437;BME280;46289;51.992;4.498;2023-05-23T05:44:18;102455.78;;;11.90;78.35
60437;BME280;46289;51.992;4.498;2023-05-23T05:46:23;102462.84;;;11.88;78.73
60437;BME280;46289;51.992;4.498;2023-05-23T05:48:29;102450.63;;;11.82;78.84
60437;BME280;46289;51.992;4.498;2023-05-23T05:50:34;102461.75;;;11.98;78.68
60437;BME280;46289;51.992;4.498;2023-05-23T05:52:43;102460.84;;;11.99;78.86
60437;BME280;46289;51.992;4.498;2023-05-23T05:54:48;102463.63;;;11.93;79.49
60437;BME280;46289;51.992;4.498;2023-05-23T05:56:54;102461.06;;;11.89;80.21
60437;BME280;46289;51.992;4.498;2023-05-23T05:58:59;102468.97;;;11.90;80.10
60437;BME280;46289;51.992;4.498;2023-05-23T06:01:04;102459.34;;;11.84;80.42
60437;BME280;46289;51.992;4.498;2023-05-23T06:03:10;102465.34;;;11.94;80.60
60437;BME280;46289;51.992;4.498;2023-05-23T06:05:16;102470.47;;;12.02;80.45
60437;BME280;46289;51.992;4.498;2023-05-23T06:07:27;102468.69;;;12.02;80.68
60437;BME280;46289;51.992;4.498;2023-05-23T06:09:35;102469.69;;;11.95;81.16
60437;BME280;46289;51.992;4.498;2023-05-23T06:11:41;102468.25;;;11.79;82.38
60437;BME280;46289;51.992;4.498;2023-05-23T06:13:46;102469.50;;;11.59;82.93
60437;BME280;46289;51.992;4.498;2023-05-23T06:15:54;102479.06;;;11.65;83.30
60437;BME280;46289;51.992;4.498;2023-05-23T06:17:59;102473.91;;;11.59;83.64
60437;BME280;46289;51.992;4.498;2023-05-23T06:20:06;102482.53;;;11.67;83.59
60437;BME280;46289;51.992;4.498;2023-05-23T06:22:11;102485.44;;;11.53;83.94
60437;BME280;46289;51.992;4.498;2023-05-23T06:24:16;102491.44;;;11.58;83.49
60437;BME280;46289;51.992;4.498;2023-05-23T06:26:24;102486.78;;;11.74;83.10
60437;BME280;46289;51.992;4.498;2023-05-23T06:28:30;102490.38;;;11.70;83.30
60437;BME280;46289;51.992;4.498;2023-05-23T06:30:35;102490.44;;;11.65;83.52
60437;BME280;46289;51.992;4.498;2023-05-23T06:32:40;102491.28;;;11.68;83.83
60437;BME280;46289;51.992;4.498;2023-05-23T06:34:45;102492.34;;;11.59;83.78
60437;BME280;46289;51.992;4.498;2023-05-23T06:36:50;102496.56;;;11.66;83.75
60437;BME280;46289;51.992;4.498;2023-05-23T06:38:56;102497.63;;;11.57;82.96
60437;BME280;46289;51.992;4.498;2023-05-23T06:41:01;102503.59;;;11.67;82.67
60437;BME280;46289;51.992;4.498;2023-05-23T06:43:10;102494.06;;;11.60;82.12
60437;BME280;46289;51.992;4.498;2023-05-23T06:45:16;102503.72;;;11.59;82.32
60437;BME280;46289;51.992;4.498;2023-05-23T06:47:21;102502.88;;;11.59;81.87
60437;BME280;46289;51.992;4.498;2023-05-23T06:49:27;102507.94;;;11.70;80.90
60437;BME280;46289;51.992;4.498;2023-05-23T06:51:33;102510.13;;;11.94;79.94
60437;BME280;46289;51.992;4.498;2023-05-23T06:53:39;102505.72;;;11.95;77.86
60437;BME280;46289;51.992;4.498;2023-05-23T06:55:44;102500.25;;;12.05;78.33
60437;BME280;46289;51.992;4.498;2023-05-23T06:57:52;102515.75;;;12.21;78.13
60437;BME280;46289;51.992;4.498;2023-05-23T07:00:01;102509.53;;;12.23;77.51
60437;BME280;46289;51.992;4.498;2023-05-23T07:02:07;102513.56;;;12.41;76.45
60437;BME280;46289;51.992;4.498;2023-05-23T07:04:12;102507.91;;;12.60;76.28
60437;BME280;46289;51.992;4.498;2023-05-23T07:06:17;102500.78;;;13.38;74.53
60437;BME280;46289;51.992;4.498;2023-05-23T07:08:23;102513.34;;;12.91;70.56
60437;BME280;46289;51.992;4.498;2023-05-23T07:10:29;102507.16;;;12.53;70.56
60437;BME280;46289;51.992;4.498;2023-05-23T07:12:35;102508.97;;;12.51;71.24
60437;BME280;46289;51.992;4.498;2023-05-23T07:14:40;102511.78;;;12.43;71.08
60437;BME280;46289;51.992;4.498;2023-05-23T07:16:50;102512.78;;;12.38;71.04
60437;BME280;46289;51.992;4.498;2023-05-23T07:18:55;102505.25;;;12.61;70.88
60437;BME280;46289;51.992;4.498;2023-05-23T07:21:03;102517.59;;;12.98;68.74
60437;BME280;46289;51.992;4.498;2023-05-23T07:23:08;102525.00;;;13.18;68.29
60437;BME280;46289;51.992;4.498;2023-05-23T07:25:13;102524.22;;;13.14;67.36
60437;BME280;46289;51.992;4.498;2023-05-23T07:27:21;102525.81;;;13.57;67.47
60437;BME280;46289;51.992;4.498;2023-05-23T07:29:29;102524.22;;;14.16;66.00
60437;BME280;46289;51.992;4.498;2023-05-23T07:31:34;102525.69;;;14.26;64.39
60437;BME280;46289;51.992;4.498;2023-05-23T07:33:42;102527.03;;;14.10;64.29
60437;BME280;46289;51.992;4.498;2023-05-23T07:35:52;102529.16;;;14.28;65.56
60437;BME280;46289;51.992;4.498;2023-05-23T07:37:57;102526.78;;;14.78;63.28
60437;BME280;46289;51.992;4.498;2023-05-23T07:40:04;102525.97;;;15.04;61.87
60437;BME280;46289;51.992;4.498;2023-05-23T07:42:10;102529.34;;;15.61;60.68
60437;BME280;46289;51.992;4.498;2023-05-23T07:44:16;102530.19;;;15.10;60.72
60437;BME280;46289;51.992;4.498;2023-05-23T07:46:26;102520.63;;;15.59;59.50
60437;BME280;46289;51.992;4.498;2023-05-23T07:48:32;102523.91;;;15.41;59.82
60437;BME280;46289;51.992;4.498;2023-05-23T07:50:41;102523.78;;;14.31;62.67
60437;BME280;46289;51.992;4.498;2023-05-23T07:52:46;102532.00;;;14.20;63.63
60437;BME280;46289;51.992;4.498;2023-05-23T07:54:53;102531.03;;;14.24;63.46
60437;BME280;46289;51.992;4.498;2023-05-23T07:57:00;102541.44;;;13.98;64.24
60437;BME280;46289;51.992;4.498;2023-05-23T07:59:06;102536.78;;;14.08;64.85
60437;BME280;46289;51.992;4.498;2023-05-23T08:01:12;102542.94;;;14.08;64.20
60437;BME280;46289;51.992;4.498;2023-05-23T08:03:20;102546.88;;;13.93;64.94
60437;BME280;46289;51.992;4.498;2023-05-23T08:05:27;102537.72;;;14.05;64.78
60437;BME280;46289;51.992;4.498;2023-05-23T08:07:35;102547.03;;;14.20;64.71
60437;BME280;46289;51.992;4.498;2023-05-23T08:09:41;102552.88;;;14.31;64.07
60437;BME280;46289;51.992;4.498;2023-05-23T08:11:46;102544.72;;;14.08;62.60
60437;BME280;46289;51.992;4.498;2023-05-23T08:13:53;102545.00;;;13.64;62.78
60437;BME280;46289;51.992;4.498;2023-05-23T08:16:02;102551.50;;;13.85;62.81
60437;BME280;46289;51.992;4.498;2023-05-23T08:18:07;102554.75;;;14.27;62.37
60437;BME280;46289;51.992;4.498;2023-05-23T08:20:12;102556.84;;;14.77;59.83
60437;BME280;46289;51.992;4.498;2023-05-23T08:22:19;102548.00;;;15.33;59.88
60437;BME280;46289;51.992;4.498;2023-05-23T08:24:27;102554.66;;;15.71;58.66
60437;BME280;46289;51.992;4.498;2023-05-23T08:26:33;102550.84;;;16.52;57.27
60437;BME280;46289;51.992;4.498;2023-05-23T08:28:43;102556.03;;;16.32;56.92
60437;BME280;46289;51.992;4.498;2023-05-23T08:30:48;102557.66;;;15.61;59.02
60437;BME280;46289;51.992;4.498;2023-05-23T08:33:00;102562.41;;;14.96;60.57
60437;BME280;46289;51.992;4.498;2023-05-23T08:35:08;102562.75;;;14.85;60.24
60437;BME280;46289;51.992;4.498;2023-05-23T08:37:13;102564.59;;;14.52;60.24
60437;BME280;46289;51.992;4.498;2023-05-23T08:39:19;102558.53;;;15.34;59.34
60437;BME280;46289;51.992;4.498;2023-05-23T08:41:29;102554.84;;;15.12;58.67
60437;BME280;46289;51.992;4.498;2023-05-23T08:43:36;102558.94;;;15.49;57.12
60437;BME280;46289;51.992;4.498;2023-05-23T08:45:45;102559.91;;;15.98;56.82
60437;BME280;46289;51.992;4.498;2023-05-23T08:47:54;102557.47;;;16.17;56.77
60437;BME280;46289;51.992;4.498;2023-05-23T08:50:00;102558.56;;;16.35;56.09
60437;BME280;46289;51.992;4.498;2023-05-23T08:52:10;102568.47;;;16.30;54.55
60437;BME280;46289;51.992;4.498;2023-05-23T08:54:16;102572.91;;;15.80;55.32
60437;BME280;46289;51.992;4.498;2023-05-23T08:56:24;102563.38;;;16.00;56.69
60437;BME280;46289;51.992;4.498;2023-05-23T08:58:33;102569.47;;;15.77;56.16
60437;BME280;46289;51.992;4.498;2023-05-23T09:00:40;102561.78;;;15.43;57.39
60437;BME280;46289;51.992;4.498;2023-05-23T09:02:46;102565.81;;;16.30;55.79
60437;BME280;46289;51.992;4.498;2023-05-23T09:04:52;102565.25;;;16.68;54.05
60437;BME280;46289;51.992;4.498;2023-05-23T09:06:58;102585.56;;;16.22;55.91
60437;BME280;46289;51.992;4.498;2023-05-23T09:09:04;102581.06;;;15.99;55.21
60437;BME280;46289;51.992;4.498;2023-05-23T09:11:09;102573.31;;;16.18;55.04
60437;BME280;46289;51.992;4.498;2023-05-23T09:13:15;102592.22;;;16.09;54.84
60437;BME280;46289;51.992;4.498;2023-05-23T09:15:24;102586.03;;;16.34;54.55
60437;BME280;46289;51.992;4.498;2023-05-23T09:17:33;102577.13;;;16.35;54.21
60437;BME280;46289;51.992;4.498;2023-05-23T09:20:04;102579.75;;;16.11;54.77
60437;BME280;46289;51.992;4.498;2023-05-23T09:22:30;102589.19;;;15.70;55.30
60437;BME280;46289;51.992;4.498;2023-05-23T09:24:48;102596.44;;;15.90;55.56
60437;BME280;46289;51.992;4.498;2023-05-23T09:27:08;102573.72;;;16.80;54.19
60437;BME280;46289;51.992;4.498;2023-05-23T09:29:32;102592.38;;;17.00;53.32
60437;BME280;46289;51.992;4.498;2023-05-23T09:32:09;102586.75;;;16.14;54.53
60437;BME280;46289;51.992;4.498;2023-05-23T09:34:54;102595.81;;;17.02;53.55
60437;BME280;46289;51.992;4.498;2023-05-23T09:37:03;102589.63;;;16.56;52.28
60437;BME280;46289;51.992;4.498;2023-05-23T09:39:11;102596.88;;;16.75;53.78
60437;BME280;46289;51.992;4.498;2023-05-23T09:41:19;102590.25;;;16.86;52.42
60437;BME280;46289;51.992;4.498;2023-05-23T09:43:29;102590.50;;;17.02;53.29
60437;BME280;46289;51.992;4.498;2023-05-23T09:45:45;102592.81;;;17.11;52.96
60437;BME280;46289;51.992;4.498;2023-05-23T09:47:56;102599.25;;;17.28;52.54
60437;BME280;46289;51.992;4.498;2023-05-23T09:50:08;102591.19;;;17.72;51.43
60437;BME280;46289;51.992;4.498;2023-05-23T09:52:20;102596.06;;;16.49;52.29
60437;BME280;46289;51.992;4.498;2023-05-23T09:54:32;102589.31;;;16.64;53.07
60437;BME280;46289;51.992;4.498;2023-05-23T09:56:39;102596.59;;;17.28;51.47
60437;BME280;46289;51.992;4.498;2023-05-23T09:58:47;102611.63;;;16.58;53.25
60437;BME280;46289;51.992;4.498;2023-05-23T10:00:55;102616.88;;;16.36;54.60
60437;BME280;46289;51.992;4.498;2023-05-23T10:03:11;102614.75;;;15.43;55.37
60437;BME280;46289;51.992;4.498;2023-05-23T10:05:30;102618.06;;;15.51;56.16
60437;BME280;46289;51.992;4.498;2023-05-23T10:07:38;102620.03;;;15.44;56.42
60437;BME280;46289;51.992;4.498;2023-05-23T10:09:47;102616.06;;;15.57;56.82
60437;BME280;46289;51.992;4.498;2023-05-23T10:12:37;102621.38;;;14.71;57.37
60437;BME280;46289;51.992;4.498;2023-05-23T10:14:50;102619.06;;;15.19;56.74
60437;BME280;46289;51.992;4.498;2023-05-23T10:17:01;102616.88;;;15.03;56.46
60437;BME280;46289;51.992;4.498;2023-05-23T10:19:19;102616.97;;;15.30;57.44
60437;BME280;46289;51.992;4.498;2023-05-23T10:21:33;102621.25;;;15.61;54.93
60437;BME280;46289;51.992;4.498;2023-05-23T10:23:41;102617.84;;;15.57;54.48
60437;BME280;46289;51.992;4.498;2023-05-23T10:25:54;102618.72;;;16.34;52.34
60437;BME280;46289;51.992;4.498;2023-05-23T10:28:01;102622.03;;;16.41;50.75
60437;BME280;46289;51.992;4.498;2023-05-23T10:30:07;102624.41;;;16.72;50.23
60437;BME280;46289;51.992;4.498;2023-05-23T10:32:13;102610.16;;;16.51;49.12
60437;BME280;46289;51.992;4.498;2023-05-23T10:34:33;102615.88;;;16.40;49.98
60437;BME280;46289;51.992;4.498;2023-05-23T10:36:58;102629.81;;;16.69;50.58
60437;BME280;46289;51.992;4.498;2023-05-23T10:39:08;102619.97;;;16.49;51.14
60437;BME280;46289;51.992;4.498;2023-05-23T10:41:22;102630.41;;;15.78;52.88
60437;BME280;46289;51.992;4.498;2023-05-23T10:43:39;102635.75;;;16.52;51.86
60437;BME280;46289;51.992;4.498;2023-05-23T10:45:45;102637.69;;;16.23;50.52
60437;BME280;46289;51.992;4.498;2023-05-23T10:47:54;102629.09;;;16.17;51.77
60437;BME280;46289;51.992;4.498;2023-05-23T10:50:03;102631.38;;;15.76;53.08
60437;BME280;46289;51.992;4.498;2023-05-23T10:52:09;102643.91;;;15.43;55.37
60437;BME280;46289;51.992;4.498;2023-05-23T10:54:20;102636.88;;;14.85;57.86
60437;BME280;46289;51.992;4.498;2023-05-23T10:56:30;102647.47;;;15.42;57.72
60437;BME280;46289;51.992;4.498;2023-05-23T10:58:41;102637.25;;;15.29;56.94
60437;BME280;46289;51.992;4.498;2023-05-23T11:00:53;102627.16;;;15.42;55.91
60437;BME280;46289;51.992;4.498;2023-05-23T11:02:59;102640.84;;;15.56;56.38
60437;BME280;46289;51.992;4.498;2023-05-23T11:05:21;102638.03;;;16.14;55.40
60437;BME280;46289;51.992;4.498;2023-05-23T11:07:30;102641.28;;;16.22;54.58
60437;BME280;46289;51.992;4.498;2023-05-23T11:10:01;102631.59;;;15.70;54.87
60437;BME280;46289;51.992;4.498;2023-05-23T11:12:07;102627.94;;;15.46;55.57
60437;BME280;46289;51.992;4.498;2023-05-23T11:14:12;102635.16;;;16.20;53.89